Terminal Aerodrome Forecast
Issued by NWS Detroit/Pontiac, MI

Home | Current Version | Previous Version | Text Only | Print | Product List | Glossary On
Versions: 1 2 3 4 5 6 7 8 9 10 11 12
166
FTUS43 KDTX 230525
TAFFNT
TAF
KFNT 230525Z 2306/2406 07005KT P6SM SKC
     FM231500 13009KT P6SM SCT250
     FM240100 14006KT P6SM SCT150 BKN250=

USA.gov is the U.S. government's official web portal to all federal, state and local government web resources and services.